TimeCDT,TemperatureF,Dew PointF,Humidity,Sea Level PressureIn,VisibilityMPH,Wind Direction,Wind SpeedMPH,Gust SpeedMPH,PrecipitationIn,Events,Conditions,WindDirDegrees,DateUTC
12:19 AM,46.4,42.8,87,29.72,9.0,NNE,16.1,-,0.00,,Overcast,20,2012-10-25 05:19:00
12:54 AM,45.0,39.9,82,29.72,10.0,North,15.0,24.2,0.00,,Overcast,10,2012-10-25 05:54:00
1:01 AM,46.4,39.2,76,29.81,10.0,NW,27.6,38.0,N/A,Thunderstorm,Overcast,310,2012-10-25 06:01:00
1:17 AM,44.6,39.2,81,29.78,2.0,NNW,20.7,31.1,N/A,Rain-Thunderstorm,Heavy Rain,340,2012-10-25 06:17:00
1:27 AM,42.8,39.2,87,29.71,3.0,North,21.9,34.5,0.07,Rain,Rain,10,2012-10-25 06:27:00
1:33 AM,42.8,39.2,87,29.71,4.0,NNE,20.7,34.5,0.08,Rain-Thunderstorm,Light Rain,20,2012-10-25 06:33:00
1:40 AM,42.8,39.2,87,29.77,6.0,NW,15.0,26.5,0.08,Rain-Thunderstorm,Light Rain,310,2012-10-25 06:40:00
1:54 AM,42.1,39.9,92,29.74,2.5,NNE,20.7,-,0.17,Rain-Thunderstorm,Heavy Thunderstorms and Rain,20,2012-10-25 06:54:00
2:01 AM,42.8,39.2,87,29.76,1.2,North,19.6,25.3,0.22,Rain-Thunderstorm,Heavy Thunderstorms and Rain,350,2012-10-25 07:01:00
2:17 AM,41.0,39.2,93,29.76,2.0,North,16.1,21.9,0.44,Rain-Thunderstorm,Heavy Thunderstorms and Rain,360,2012-10-25 07:17:00
2:26 AM,42.8,39.2,87,29.76,4.0,North,17.3,25.3,0.46,Rain-Thunderstorm,Thunderstorms and Rain,350,2012-10-25 07:26:00
2:41 AM,42.8,39.2,87,29.77,8.0,NNW,17.3,-,0.48,Rain,Light Rain,340,2012-10-25 07:41:00
2:54 AM,42.1,39.0,89,29.77,10.0,North,19.6,-,0.48,,Overcast,350,2012-10-25 07:54:00
3:16 AM,41.0,37.4,87,29.78,10.0,NNW,25.3,31.1,0.00,,Overcast,340,2012-10-25 08:16:00
3:54 AM,41.0,37.9,89,29.80,7.0,NNW,23.0,29.9,0.00,Rain,Light Rain,340,2012-10-25 08:54:00
4:54 AM,39.9,37.0,89,29.83,5.0,NNW,26.5,32.2,0.02,Rain,Light Rain,340,2012-10-25 09:54:00
5:04 AM,39.2,37.4,93,29.83,3.0,NNW,24.2,34.5,0.04,Rain,Heavy Rain,340,2012-10-25 10:04:00
5:54 AM,39.0,36.0,89,29.86,10.0,North,26.5,34.5,0.04,Rain,Light Rain,350,2012-10-25 10:54:00
6:44 AM,39.2,35.6,87,29.88,7.0,NNW,20.7,36.8,0.00,,Overcast,340,2012-10-25 11:44:00
6:54 AM,37.9,35.1,89,29.88,7.0,NNW,24.2,34.5,0.00,,Overcast,340,2012-10-25 11:54:00
7:54 AM,37.0,34.0,89,29.95,10.0,NNW,24.2,35.7,N/A,,Overcast,340,2012-10-25 12:54:00
8:18 AM,37.4,33.8,87,29.95,7.0,NNW,29.9,38.0,N/A,,Overcast,340,2012-10-25 13:18:00
8:54 AM,37.0,33.1,86,30.00,8.0,NNW,24.2,34.5,N/A,,Overcast,340,2012-10-25 13:54:00
9:54 AM,37.0,33.1,86,30.04,10.0,NNW,19.6,31.1,N/A,,Overcast,330,2012-10-25 14:54:00
10:54 AM,39.0,32.0,76,30.08,10.0,NNW,20.7,39.1,N/A,,Overcast,330,2012-10-25 15:54:00
11:10 AM,39.2,32.0,75,30.08,10.0,NNW,20.7,35.7,N/A,,Overcast,330,2012-10-25 16:10:00
11:54 AM,39.0,30.9,73,30.13,10.0,NNW,24.2,35.7,N/A,,Overcast,340,2012-10-25 16:54:00
12:10 PM,39.2,30.2,70,30.12,9.0,NNW,27.6,34.5,N/A,,Overcast,330,2012-10-25 17:10:00
12:54 PM,39.9,30.9,70,30.14,9.0,NNW,21.9,29.9,N/A,,Overcast,340,2012-10-25 17:54:00
1:05 PM,39.2,30.2,70,30.11,9.0,North,24.2,29.9,N/A,,Overcast,350,2012-10-25 18:05:00
1:38 PM,42.8,30.2,61,30.12,9.0,North,23.0,27.6,N/A,,Overcast,350,2012-10-25 18:38:00
1:54 PM,43.0,30.9,62,30.14,9.0,NNW,24.2,-,N/A,,Mostly Cloudy,340,2012-10-25 18:54:00
2:54 PM,42.1,30.0,62,30.17,10.0,NNW,20.7,-,N/A,,Overcast,340,2012-10-25 19:54:00
3:54 PM,39.9,28.9,65,30.20,9.0,NNW,19.6,27.6,N/A,,Overcast,340,2012-10-25 20:54:00
4:54 PM,39.0,28.9,67,30.23,9.0,NNW,24.2,29.9,N/A,,Overcast,330,2012-10-25 21:54:00
5:54 PM,37.9,27.0,65,30.27,9.0,NNW,21.9,-,N/A,,Overcast,330,2012-10-25 22:54:00
6:54 PM,37.0,27.0,67,30.33,10.0,NNW,18.4,-,N/A,,Overcast,330,2012-10-25 23:54:00
7:54 PM,37.0,26.1,65,30.35,10.0,North,18.4,-,N/A,,Overcast,350,2012-10-26 00:54:00
8:54 PM,37.0,27.0,67,30.37,10.0,NNW,17.3,23.0,N/A,,Overcast,340,2012-10-26 01:54:00
9:54 PM,37.0,27.0,67,30.39,10.0,NNW,11.5,-,N/A,,Overcast,340,2012-10-26 02:54:00
10:54 PM,36.0,26.1,67,30.40,10.0,NNW,16.1,-,N/A,,Overcast,340,2012-10-26 03:54:00
11:54 PM,36.0,25.0,64,30.39,10.0,North,19.6,-,N/A,,Overcast,350,2012-10-26 04:54:00